This is the latest recevied weather packets stored in our database for station/object IT9RID. If no packets are shown the sender has not sent any weather packets the latest 10 day(s).
| Time | Temp. | Humidity | Pressure | Rain* | Wind** | Luminosity | Snow |
|---|---|---|---|---|---|---|---|
| 1788016082 | 33.89° C | 60% | 1015.9 hPa | 0 mm | - | - | - |
| 1788015482 | 34.44° C | 57% | 1015.9 hPa | 0 mm | - | - | - |
| 1788014882 | 33.89° C | 58% | 1015.9 hPa | 0 mm | - | - | - |
| 1788014282 | 33.89° C | 56% | 1016 hPa | 0 mm | - | - | - |
| 1788013681 | 33.33° C | 62% | 1016.1 hPa | 0 mm | - | - | - |
| 1788013081 | 33.33° C | 64% | 1016.3 hPa | 0 mm | - | - | - |
| 1788012484 | 32.78° C | 68% | 1016.6 hPa | 0 mm | - | - | - |
| 1788011881 | 32.22° C | 70% | 1016.9 hPa | 0 mm | - | - | - |
| 1788011281 | 32.22° C | 73% | 1017.2 hPa | 0 mm | - | - | - |
| 1788010681 | 32.22° C | 75% | 1017.3 hPa | 0 mm | - | - | - |
| 1788010080 | 31.67° C | 77% | 1017.6 hPa | 0 mm | - | - | - |
| 1788009480 | 31.67° C | 77% | 1017.7 hPa | 0 mm | - | - | - |
| 1788008880 | 31.11° C | 76% | 1017.6 hPa | 0 mm | - | - | - |
| 1788008280 | 31.67° C | 74% | 1017.7 hPa | 0 mm | - | - | - |
| 1788007680 | 31.11° C | 76% | 1017.6 hPa | 0 mm | - | - | - |
| 1788007080 | 31.67° C | 75% | 1017.8 hPa | 0 mm | - | - | - |
| 1788006480 | 31.11° C | 75% | 1017.7 hPa | 0 mm | - | - | - |
| 1788005879 | 31.67° C | 76% | 1017.7 hPa | 0 mm | - | - | - |
| 1788005279 | 31.67° C | 76% | 1017.9 hPa | 0 mm | - | - | - |
| 1788004679 | 31.67° C | 76% | 1017.9 hPa | 0 mm | - | - | - |
| 1788004079 | 31.11° C | 77% | 1018 hPa | 0 mm | - | - | - |
| 1788003479 | 30.56° C | 78% | 1018.1 hPa | 0 mm | - | - | - |
| 1788002879 | 30.56° C | 79% | 1018.1 hPa | 0 mm | - | - | - |
| 1788002279 | 31.11° C | 76% | 1017.8 hPa | 0 mm | - | - | - |
| 1788001678 | 31.11° C | 75% | 1017.7 hPa | 0 mm | - | - | - |
* Rain latest hour (hover to see other rain measurements)
** Current wind speed in m/s (hover to see current wind gust speed)